createdAt,value
2022-08-16T00:02:33.305Z,98336.34
2022-08-16T00:05:01.151Z,98333.81
2022-08-16T00:07:29.804Z,98339.81
2022-08-16T00:09:58.823Z,98333.94
2022-08-16T00:12:28.247Z,98338.94
2022-08-16T00:14:57.334Z,98337.91
2022-08-16T00:17:26.419Z,98334.59
2022-08-16T00:19:55.585Z,98327.16
2022-08-16T00:22:25.139Z,98333.09
2022-08-16T00:24:54.416Z,98330.66
2022-08-16T00:27:22.424Z,98323.13
2022-08-16T00:30:08.959Z,98344.03
2022-08-16T00:32:38.692Z,98330.03
2022-08-16T00:35:13.228Z,98333.69
2022-08-16T00:37:56.981Z,98338.56
2022-08-16T00:40:36.613Z,98331.41
2022-08-16T00:43:12.213Z,98339.25
2022-08-16T00:46:22.456Z,98331.75
2022-08-16T00:48:57.659Z,98335.31
2022-08-16T00:51:26.113Z,98337.56
2022-08-16T00:53:56.713Z,98333.69
2022-08-16T00:56:56.391Z,98339.06
2022-08-16T00:59:16.379Z,98345.59
2022-08-16T01:01:44.954Z,98340.22
2022-08-16T01:04:28.967Z,98333.25
2022-08-16T01:07:01.114Z,98340.53
2022-08-16T01:09:34.404Z,98340.22
2022-08-16T01:12:08.507Z,98335.28
2022-08-16T01:14:41.256Z,98336.38
2022-08-16T01:17:12.657Z,98339.63
2022-08-16T01:19:44.575Z,98343.09
2022-08-16T01:22:58.952Z,98344.13
2022-08-16T01:25:22.207Z,98346.00
2022-08-16T01:27:52.969Z,98350.16
2022-08-16T01:30:26.404Z,98344.25
2022-08-16T01:33:02.190Z,98351.81
2022-08-16T01:36:01.933Z,98355.91
2022-08-16T01:38:46.942Z,98360.34
2022-08-16T01:41:22.277Z,98368.59
2022-08-16T01:43:53.678Z,98384.94
2022-08-16T01:46:37.366Z,98392.72
2022-08-16T01:49:15.739Z,98378.66
2022-08-16T01:51:50.644Z,98385.66
2022-08-16T01:54:30.610Z,98383.81
2022-08-16T01:56:59.194Z,98390.13
2022-08-16T01:59:26.831Z,98388.31
2022-08-16T02:01:59.680Z,98382.09
2022-08-16T02:04:49.673Z,98396.03
2022-08-16T02:07:18.694Z,98394.88
2022-08-16T02:09:56.904Z,98401.97
2022-08-16T02:12:50.763Z,98389.88
2022-08-16T02:15:17.653Z,98390.09
2022-08-16T02:17:58.260Z,98391.16
2022-08-16T02:20:28.040Z,98399.50
2022-08-16T02:22:57.446Z,98393.03
2022-08-16T02:25:24.954Z,98389.84
2022-08-16T02:28:11.629Z,98396.91
2022-08-16T02:30:46.653Z,98390.50
2022-08-16T02:33:17.968Z,98393.66
2022-08-16T02:35:54.588Z,98399.38
2022-08-16T02:38:28.423Z,98394.00
2022-08-16T02:40:57.666Z,98396.69
2022-08-16T02:43:29.079Z,98391.88
2022-08-16T02:46:01.663Z,98394.00
2022-08-16T02:48:31.119Z,98389.94
2022-08-16T02:51:06.193Z,98404.38
2022-08-16T02:53:40.265Z,98409.50
2022-08-16T02:56:09.915Z,98418.34
2022-08-16T02:58:38.520Z,98415.56
2022-08-16T03:01:07.093Z,98415.41
2022-08-16T03:04:29.816Z,98426.16
2022-08-16T03:06:42.140Z,98426.50
2022-08-16T03:09:34.361Z,98420.63
2022-08-16T03:12:03.410Z,98429.84
2022-08-16T03:14:30.838Z,98438.09
2022-08-16T03:17:00.938Z,98434.72
2022-08-16T03:19:46.882Z,98434.34
2022-08-16T03:22:19.453Z,98434.25
2022-08-16T03:24:57.293Z,98436.47
2022-08-16T03:27:24.143Z,98442.88
2022-08-16T03:29:54.760Z,98441.66
2022-08-16T03:32:23.556Z,98446.88
2022-08-16T03:34:52.956Z,98442.31
2022-08-16T03:37:19.661Z,98436.78
2022-08-16T03:39:47.055Z,98438.81
2022-08-16T03:42:20.530Z,98452.41
2022-08-16T03:44:49.977Z,98447.13
2022-08-16T03:47:19.738Z,98447.94
2022-08-16T03:49:51.796Z,98457.31
2022-08-16T03:52:23.262Z,98449.00
2022-08-16T03:54:58.106Z,98449.50
2022-08-16T03:57:31.859Z,98441.00
2022-08-16T04:00:35.275Z,98450.06
2022-08-16T04:03:08.958Z,98450.16
2022-08-16T04:05:46.657Z,98452.34
2022-08-16T04:08:23.814Z,98456.41
2022-08-16T04:10:55.857Z,98465.06
2022-08-16T04:14:00.596Z,98454.59
2022-08-16T04:16:26.575Z,98448.16
2022-08-16T04:19:01.176Z,98449.81
2022-08-16T04:21:35.112Z,98453.06
2022-08-16T04:24:03.127Z,98457.72
2022-08-16T04:26:32.396Z,98455.81
2022-08-16T04:29:16.572Z,98460.38
2022-08-16T04:31:55.634Z,98462.75
2022-08-16T04:34:31.382Z,98465.13
2022-08-16T04:37:01.534Z,98460.19
2022-08-16T04:39:36.681Z,98450.63
2022-08-16T04:42:13.900Z,98449.13
2022-08-16T04:44:54.511Z,98456.72
2022-08-16T04:47:31.438Z,98465.44
2022-08-16T04:49:59.197Z,98473.00
2022-08-16T04:52:33.430Z,98475.59
2022-08-16T04:55:19.751Z,98471.63
2022-08-16T04:57:53.514Z,98469.03
2022-08-16T05:00:32.809Z,98455.50
2022-08-16T05:03:13.554Z,98455.31
2022-08-16T05:05:59.461Z,98450.63
2022-08-16T05:08:32.974Z,98451.00
2022-08-16T05:11:12.210Z,98448.06
2022-08-16T05:13:44.822Z,98447.06
2022-08-16T05:16:23.041Z,98466.47
2022-08-16T05:18:59.564Z,98452.47
2022-08-16T05:21:38.542Z,98458.03
2022-08-16T05:24:09.171Z,98469.56
2022-08-16T05:26:43.328Z,98473.81
2022-08-16T05:29:16.917Z,98478.09
2022-08-16T05:32:01.378Z,98473.00
2022-08-16T05:34:28.861Z,98480.41
2022-08-16T05:36:57.456Z,98481.19
2022-08-16T05:39:33.549Z,98478.84
2022-08-16T05:42:07.552Z,98481.41
2022-08-16T05:44:36.534Z,98498.25
2022-08-16T05:47:04.193Z,98483.06
2022-08-16T05:49:38.347Z,98479.97
2022-08-16T05:52:10.717Z,98496.81
2022-08-16T05:54:46.676Z,98489.84
2022-08-16T05:57:15.523Z,98494.13
2022-08-16T05:59:42.356Z,98487.81
2022-08-16T06:02:10.041Z,98487.47
2022-08-16T06:04:37.928Z,98479.97
2022-08-16T06:07:25.102Z,98496.75
2022-08-16T06:10:32.310Z,98487.31
2022-08-16T06:13:01.160Z,98497.34
2022-08-16T06:15:28.090Z,98501.81
2022-08-16T06:17:59.211Z,98508.84
2022-08-16T06:20:36.008Z,98488.44
2022-08-16T06:23:18.238Z,98480.59
2022-08-16T06:26:07.378Z,98500.66
2022-08-16T06:28:38.021Z,98487.81
2022-08-16T06:31:13.702Z,98481.09
2022-08-16T06:33:44.854Z,98490.38
2022-08-16T06:36:15.242Z,98509.09
2022-08-16T06:38:55.618Z,98507.78
2022-08-16T06:41:43.973Z,98509.69
2022-08-16T06:44:21.779Z,98503.19
2022-08-16T06:46:55.833Z,98496.75
2022-08-16T06:49:22.975Z,98497.00
2022-08-16T06:51:50.760Z,98489.41
2022-08-16T06:54:24.320Z,98502.16
2022-08-16T06:56:54.047Z,98506.50
2022-08-16T06:59:25.581Z,98502.41
2022-08-16T07:01:58.194Z,98494.28
2022-08-16T07:04:32.544Z,98493.75
2022-08-16T07:07:15.240Z,98493.03
2022-08-16T07:09:42.814Z,98496.59
2022-08-16T07:12:09.589Z,98496.81
2022-08-16T07:14:41.496Z,98506.78
2022-08-16T07:17:18.331Z,98495.59
2022-08-16T07:20:30.040Z,98498.97
2022-08-16T07:22:52.406Z,98499.28
2022-08-16T07:25:27.668Z,98518.50
2022-08-16T07:27:55.016Z,98511.00
2022-08-16T07:30:39.293Z,98505.75
2022-08-16T07:33:51.160Z,98502.69
2022-08-16T07:36:08.121Z,98521.53
2022-08-16T07:38:42.529Z,98511.75
2022-08-16T07:41:10.682Z,98513.72
2022-08-16T07:43:43.289Z,98505.50
2022-08-16T07:46:37.511Z,98514.59
2022-08-16T07:49:02.046Z,98500.75
2022-08-16T07:51:35.537Z,98506.69
2022-08-16T07:54:10.112Z,98511.50
2022-08-16T07:56:43.158Z,98528.84
2022-08-16T07:59:10.313Z,98512.69
2022-08-16T08:01:38.436Z,98510.94
2022-08-16T08:04:07.740Z,98505.81
2022-08-16T08:06:41.734Z,98512.91
2022-08-16T08:09:15.206Z,98514.13
2022-08-16T08:11:59.804Z,98520.63
2022-08-16T08:14:34.229Z,98508.75
2022-08-16T08:17:01.874Z,98507.22
2022-08-16T08:19:31.223Z,98492.16
2022-08-16T08:22:01.519Z,98500.91
2022-08-16T08:24:43.868Z,98516.03
2022-08-16T08:27:11.504Z,98499.84
2022-08-16T08:29:40.620Z,98501.97
2022-08-16T08:32:51.193Z,98499.38
2022-08-16T08:35:04.741Z,98513.53
2022-08-16T08:37:54.366Z,98502.09
2022-08-16T08:40:27.187Z,98504.06
2022-08-16T08:43:00.885Z,98502.41
2022-08-16T08:45:52.513Z,98505.16
2022-08-16T08:48:33.481Z,98506.56
2022-08-16T08:51:17.234Z,98514.72
2022-08-16T08:53:57.523Z,98513.19
2022-08-16T08:56:26.515Z,98518.34
2022-08-16T08:59:12.786Z,98516.91
2022-08-16T09:01:56.899Z,98525.06
2022-08-16T09:04:27.231Z,98508.81
2022-08-16T09:06:55.995Z,98519.44
2022-08-16T09:09:33.562Z,98521.38
2022-08-16T09:12:06.505Z,98520.38
2022-08-16T09:14:51.124Z,98527.09
2022-08-16T09:20:14.394Z,98520.22
2022-08-16T09:22:43.613Z,98522.88
2022-08-16T09:25:23.053Z,98519.22
2022-08-16T09:27:57.593Z,98519.28
2022-08-16T09:30:34.486Z,98518.97
2022-08-16T09:33:10.682Z,98523.91
2022-08-16T09:35:38.967Z,98524.94
2022-08-16T09:38:08.791Z,98513.66
2022-08-16T09:40:43.358Z,98517.34
2022-08-16T09:43:37.778Z,98506.25
2022-08-16T09:46:00.603Z,98509.38
2022-08-16T09:48:44.045Z,98516.25
2022-08-16T09:51:13.285Z,98514.22
2022-08-16T09:53:41.277Z,98521.59
2022-08-16T09:56:39.079Z,98507.66
2022-08-16T09:59:08.156Z,98510.38
2022-08-16T10:01:43.468Z,98516.66
2022-08-16T10:04:33.109Z,98506.19
2022-08-16T10:09:44.974Z,98505.66
2022-08-16T10:12:42.591Z,98500.66
2022-08-16T10:15:17.110Z,98505.13
2022-08-16T10:17:59.543Z,98507.84
2022-08-16T10:20:29.594Z,98508.19
2022-08-16T10:23:03.515Z,98517.03
2022-08-16T10:27:16.892Z,98511.97
2022-08-16T10:28:28.578Z,98513.97
2022-08-16T10:30:59.065Z,98518.41
2022-08-16T10:33:29.444Z,98519.44
2022-08-16T10:36:02.559Z,98519.44
2022-08-16T10:38:30.570Z,98520.16
2022-08-16T10:41:00.520Z,98520.72
2022-08-16T10:43:27.621Z,98525.59
2022-08-16T10:46:00.705Z,98530.03
2022-08-16T10:48:29.428Z,98533.69
2022-08-16T10:50:59.309Z,98517.94
2022-08-16T10:53:32.341Z,98526.78
2022-08-16T10:56:03.079Z,98527.84
2022-08-16T10:58:34.018Z,98525.38
2022-08-16T11:01:24.955Z,98527.00
2022-08-16T11:03:56.939Z,98515.88
2022-08-16T11:06:26.854Z,98526.72
2022-08-16T11:14:30.356Z,98520.22
2022-08-16T11:17:02.605Z,98524.25
2022-08-16T11:20:00.666Z,98525.78
2022-08-16T11:22:42.256Z,98530.88
2022-08-16T11:25:12.793Z,98521.00
2022-08-16T11:27:43.177Z,98523.28
2022-08-16T11:30:13.271Z,98526.94
2022-08-16T11:32:46.844Z,98508.31
2022-08-16T11:35:43.489Z,98515.72
2022-08-16T11:38:46.978Z,98529.25
2022-08-16T11:41:00.260Z,98521.75
2022-08-16T11:43:29.703Z,98506.47
2022-08-16T11:46:01.421Z,98519.44
2022-08-16T11:48:48.376Z,98508.16
2022-08-16T11:51:15.071Z,98517.09
2022-08-16T11:53:41.831Z,98519.75
2022-08-16T11:56:09.050Z,98522.00
2022-08-16T11:58:39.485Z,98509.28
2022-08-16T12:01:08.290Z,98515.38
2022-08-16T12:03:37.625Z,98514.69
2022-08-16T12:06:25.311Z,98514.03
2022-08-16T12:09:01.043Z,98509.63
2022-08-16T12:11:31.602Z,98508.09
2022-08-16T12:14:04.945Z,98507.50
2022-08-16T12:16:34.476Z,98503.34
2022-08-16T12:19:04.553Z,98499.19
2022-08-16T12:21:35.935Z,98507.56
2022-08-16T12:24:20.044Z,98487.94
2022-08-16T12:26:48.029Z,98499.97
2022-08-16T12:29:15.892Z,98498.94
2022-08-16T12:32:01.241Z,98496.78
2022-08-16T12:34:29.619Z,98490.44
2022-08-16T12:36:56.698Z,98497.38
2022-08-16T12:39:23.835Z,98485.38
2022-08-16T12:41:56.343Z,98485.66
2022-08-16T12:44:26.384Z,98502.59
2022-08-16T12:47:17.593Z,98500.91
2022-08-16T12:49:44.342Z,98487.66
2022-08-16T12:52:32.851Z,98497.50
2022-08-16T12:55:00.531Z,98495.91
2022-08-16T12:57:36.125Z,98501.03
2022-08-16T13:00:12.833Z,98508.28
2022-08-16T13:02:54.064Z,98501.97
2022-08-16T13:05:20.854Z,98501.38
2022-08-16T13:07:51.262Z,98493.16
2022-08-16T13:10:21.025Z,98491.34
2022-08-16T13:13:05.861Z,98489.88
2022-08-16T13:15:36.237Z,98498.81
2022-08-16T13:18:26.875Z,98488.22
2022-08-16T13:21:00.182Z,98500.88
2022-08-16T13:23:26.818Z,98492.63
2022-08-16T13:25:54.858Z,98482.34
2022-08-16T13:28:22.048Z,98476.81
2022-08-16T13:30:54.959Z,98484.25
2022-08-16T13:33:36.859Z,98474.66
2022-08-16T13:36:16.732Z,98465.88
2022-08-16T13:38:49.331Z,98465.69
2022-08-16T13:41:16.189Z,98473.41
2022-08-16T13:43:43.147Z,98477.09
2022-08-16T13:46:09.915Z,98462.91
2022-08-16T13:48:44.304Z,98465.44
2022-08-16T13:51:17.146Z,98469.06
2022-08-16T13:53:54.563Z,98467.38
2022-08-16T13:56:25.898Z,98464.13
2022-08-16T13:59:04.487Z,98465.00
2022-08-16T14:01:33.087Z,98463.13
2022-08-16T14:04:03.669Z,98453.97
2022-08-16T14:06:31.199Z,98460.06
2022-08-16T14:09:06.286Z,98471.44
2022-08-16T14:11:34.872Z,98467.00
2022-08-16T14:14:05.674Z,98453.53
2022-08-16T14:16:34.889Z,98452.53
2022-08-16T14:19:03.188Z,98447.16
2022-08-16T14:21:35.398Z,98452.47
2022-08-16T14:24:07.778Z,98446.44
2022-08-16T14:26:48.901Z,98443.06
2022-08-16T14:31:45.175Z,98445.81
2022-08-16T14:34:11.939Z,98452.13
2022-08-16T14:36:42.133Z,98449.50
2022-08-16T14:39:09.078Z,98453.69
2022-08-16T14:41:36.721Z,98456.03
2022-08-16T14:44:06.811Z,98454.13
2022-08-16T14:46:33.450Z,98445.81
2022-08-16T14:49:01.756Z,98448.72
2022-08-16T14:51:29.021Z,98444.09
2022-08-16T14:53:56.819Z,98432.38
2022-08-16T14:56:38.392Z,98432.59
2022-08-16T14:59:11.113Z,98444.94
2022-08-16T15:01:57.575Z,98441.06
2022-08-16T15:04:39.203Z,98434.31
2022-08-16T15:07:11.167Z,98441.88
2022-08-16T15:09:43.885Z,98441.22
2022-08-16T15:12:33.601Z,98441.19
2022-08-16T15:15:12.623Z,98441.66
2022-08-16T15:17:54.483Z,98449.19
2022-08-16T15:20:26.908Z,98440.03
2022-08-16T15:22:57.212Z,98444.78
2022-08-16T15:25:29.682Z,98438.78
2022-08-16T15:27:57.548Z,98432.97
2022-08-16T15:30:57.747Z,98433.94
2022-08-16T15:33:25.522Z,98438.66
2022-08-16T15:35:55.303Z,98446.19
2022-08-16T15:38:55.292Z,98442.63
2022-08-16T15:41:28.595Z,98438.03
2022-08-16T15:44:05.567Z,98437.84
2022-08-16T15:46:56.924Z,98446.31
2022-08-16T15:49:37.157Z,98447.28
2022-08-16T15:52:20.539Z,98443.44
2022-08-16T15:54:53.134Z,98445.97
2022-08-16T15:57:23.207Z,98440.75
2022-08-16T15:59:52.315Z,98437.41
2022-08-16T16:02:29.836Z,98439.34
2022-08-16T16:05:01.755Z,98439.38
2022-08-16T16:07:30.509Z,98438.84
2022-08-16T16:09:59.480Z,98429.72
2022-08-16T16:15:18.393Z,98436.25
2022-08-16T16:17:50.836Z,98431.94
2022-08-16T16:20:21.410Z,98428.13
2022-08-16T16:22:49.972Z,98436.34
2022-08-16T16:25:17.230Z,98437.06
2022-08-16T16:27:45.298Z,98436.41
2022-08-16T16:30:33.271Z,98432.41
2022-08-16T16:33:01.035Z,98429.09
2022-08-16T16:35:32.523Z,98429.44
2022-08-16T16:37:59.957Z,98428.78
2022-08-16T16:40:32.132Z,98430.97
2022-08-16T16:43:00.437Z,98435.47
2022-08-16T16:45:34.723Z,98433.97
2022-08-16T16:48:12.648Z,98442.09
2022-08-16T16:50:45.415Z,98443.66
2022-08-16T16:53:17.089Z,98451.56
2022-08-16T16:55:47.658Z,98453.63
2022-08-16T16:58:40.468Z,98448.03
2022-08-16T17:01:10.748Z,98453.19
2022-08-16T17:03:38.551Z,98449.97
2022-08-16T17:06:09.144Z,98457.97
2022-08-16T17:08:41.531Z,98464.81
2022-08-16T17:11:09.992Z,98457.41
2022-08-16T17:13:38.576Z,98466.00
2022-08-16T17:16:05.521Z,98477.25
2022-08-16T17:19:14.725Z,98471.69
2022-08-16T17:21:20.261Z,98475.84
2022-08-16T17:23:59.283Z,98478.22
2022-08-16T17:26:29.521Z,98486.50
2022-08-16T17:29:02.211Z,98486.59
2022-08-16T17:31:38.291Z,98490.28
2022-08-16T17:34:28.542Z,98490.56
2022-08-16T17:36:54.648Z,98494.97
2022-08-16T17:39:21.600Z,98493.97
2022-08-16T17:41:51.101Z,98498.56
2022-08-16T17:44:19.284Z,98496.22
2022-08-16T17:46:51.226Z,98495.56
2022-08-16T17:49:19.578Z,98505.00
2022-08-16T17:51:46.449Z,98504.25
2022-08-16T17:54:18.809Z,98512.31
2022-08-16T17:57:00.768Z,98513.75
2022-08-16T17:59:28.210Z,98507.53
2022-08-16T18:01:55.715Z,98519.84
2022-08-16T18:04:48.383Z,98521.03
2022-08-16T18:07:10.221Z,98524.31
2022-08-16T18:09:41.020Z,98533.34
2022-08-16T18:12:44.685Z,98530.41
2022-08-16T18:15:07.445Z,98521.75
2022-08-16T18:17:34.358Z,98525.00
2022-08-16T18:20:01.003Z,98524.25
2022-08-16T18:22:30.817Z,98529.91
2022-08-16T18:24:58.395Z,98528.03
2022-08-16T18:27:27.234Z,98534.56
2022-08-16T18:29:54.902Z,98540.53
2022-08-16T18:32:24.235Z,98547.34
2022-08-16T18:34:52.889Z,98543.03
2022-08-16T18:37:22.245Z,98542.75
2022-08-16T18:39:49.025Z,98539.00
2022-08-16T18:42:15.770Z,98544.69
2022-08-16T18:44:43.816Z,98547.88
2022-08-16T18:47:10.571Z,98544.41
2022-08-16T18:49:37.529Z,98543.56
2022-08-16T18:52:04.674Z,98552.78
2022-08-16T18:54:33.346Z,98551.41
2022-08-16T18:57:02.415Z,98546.56
2022-08-16T18:59:33.219Z,98550.06
2022-08-16T19:02:04.748Z,98547.94
2022-08-16T19:04:55.122Z,98552.25
2022-08-16T19:07:21.230Z,98552.81
2022-08-16T19:09:47.907Z,98554.41
2022-08-16T19:12:15.980Z,98555.47
2022-08-16T19:14:45.346Z,98560.41
2022-08-16T19:17:12.192Z,98562.00
2022-08-16T19:19:38.999Z,98565.25
2022-08-16T19:22:06.533Z,98569.34
2022-08-16T19:24:33.236Z,98565.25
2022-08-16T19:27:01.627Z,98570.38
2022-08-16T19:29:28.996Z,98572.56
2022-08-16T19:31:55.722Z,98573.94
2022-08-16T19:34:22.388Z,98576.91
2022-08-16T19:36:49.039Z,98574.72
2022-08-16T19:39:17.540Z,98578.78
2022-08-16T19:41:52.965Z,98575.81
2022-08-16T19:44:24.337Z,98582.03
2022-08-16T19:46:51.553Z,98576.06
2022-08-16T19:49:18.200Z,98575.25
2022-08-16T19:51:46.383Z,98581.22
2022-08-16T19:54:13.144Z,98588.78
2022-08-16T19:56:39.812Z,98591.25
2022-08-16T19:59:39.453Z,98591.78
2022-08-16T20:01:53.368Z,98592.84
2022-08-16T20:04:22.088Z,98591.47
2022-08-16T20:06:49.406Z,98590.91
2022-08-16T20:09:16.306Z,98594.41
2022-08-16T20:11:47.565Z,98593.56
2022-08-16T20:14:19.260Z,98593.28
2022-08-16T20:16:52.507Z,98596.53
2022-08-16T20:19:19.583Z,98603.00
2022-08-16T20:21:46.340Z,98600.31
2022-08-16T20:24:32.728Z,98608.72
2022-08-16T20:26:59.843Z,98605.72
2022-08-16T20:29:27.911Z,98603.84
2022-08-16T20:31:54.742Z,98605.72
2022-08-16T20:34:21.455Z,98591.66
2022-08-16T20:36:48.126Z,98606.56
2022-08-16T20:39:15.015Z,98598.94
2022-08-16T20:41:42.166Z,98604.59
2022-08-16T20:44:10.431Z,98601.88
2022-08-16T20:46:39.058Z,98604.09
2022-08-16T20:49:09.165Z,98604.66
2022-08-16T20:51:49.727Z,98608.41
2022-08-16T20:54:18.363Z,98611.41
2022-08-16T20:56:45.105Z,98613.31
2022-08-16T20:59:11.766Z,98610.88
2022-08-16T21:01:46.713Z,98611.13
2022-08-16T21:04:18.708Z,98606.53
2022-08-16T21:06:54.029Z,98609.75
2022-08-16T21:09:32.505Z,98611.97
2022-08-16T21:12:02.049Z,98610.28
2022-08-16T21:14:32.431Z,98609.47
2022-08-16T21:16:59.517Z,98620.53
2022-08-16T21:19:27.237Z,98625.41
2022-08-16T21:21:54.255Z,98616.47
2022-08-16T21:24:20.920Z,98616.47
2022-08-16T21:26:53.857Z,98615.09
2022-08-16T21:29:22.807Z,98614.84
2022-08-16T21:31:51.718Z,98616.69
2022-08-16T21:34:18.415Z,98622.38
2022-08-16T21:36:45.247Z,98625.63
2022-08-16T21:39:11.924Z,98613.69
2022-08-16T21:41:38.768Z,98618.56
2022-08-16T21:44:05.808Z,98614.50
2022-08-16T21:46:33.937Z,98615.28
2022-08-16T21:49:00.735Z,98617.66
2022-08-16T21:51:27.379Z,98617.97
2022-08-16T21:53:54.199Z,98615.69
2022-08-16T21:56:21.007Z,98619.25
2022-08-16T21:58:47.893Z,98618.91
2022-08-16T22:01:22.999Z,98622.16
2022-08-16T22:04:11.349Z,98622.91
2022-08-16T22:06:38.733Z,98628.78
2022-08-16T22:09:07.329Z,98625.84
2022-08-16T22:11:34.399Z,98627.41
2022-08-16T22:14:01.127Z,98623.09
2022-08-16T22:16:30.991Z,98623.34
2022-08-16T22:18:57.667Z,98626.50
2022-08-16T22:21:24.679Z,98630.00
2022-08-16T22:23:56.981Z,98635.34
2022-08-16T22:26:31.519Z,98636.38
2022-08-16T22:29:01.526Z,98643.94
2022-08-16T22:31:29.108Z,98631.56
2022-08-16T22:33:56.821Z,98629.06
2022-08-16T22:36:23.972Z,98630.78
2022-08-16T22:38:57.941Z,98636.16
2022-08-16T22:41:26.912Z,98637.63
2022-08-16T22:43:53.593Z,98633.66
2022-08-16T22:46:20.811Z,98630.97
2022-08-16T22:48:50.260Z,98629.41
2022-08-16T22:51:18.743Z,98635.34
2022-08-16T22:53:45.716Z,98630.22
2022-08-16T22:56:12.476Z,98628.06
2022-08-16T22:58:39.582Z,98623.53
2022-08-16T23:01:08.141Z,98622.44
2022-08-16T23:03:36.195Z,98612.66
2022-08-16T23:06:04.241Z,98631.50
2022-08-16T23:08:39.075Z,98618.53
2022-08-16T23:11:12.067Z,98621.25
2022-08-16T23:13:50.090Z,98618.47
2022-08-16T23:16:32.443Z,98614.03
2022-08-16T23:19:06.716Z,98612.34
2022-08-16T23:21:34.470Z,98618.88
2022-08-16T23:24:01.394Z,98608.63
2022-08-16T23:26:44.722Z,98605.22
2022-08-16T23:29:22.504Z,98608.72
2022-08-16T23:31:59.046Z,98613.19
2022-08-16T23:34:27.895Z,98605.13
2022-08-16T23:36:55.195Z,98610.22
2022-08-16T23:39:22.189Z,98610.16
2022-08-16T23:41:48.942Z,98612.66
2022-08-16T23:44:55.769Z,98616.13
2022-08-16T23:47:02.291Z,98610.50
2022-08-16T23:49:59.063Z,98614.06
2022-08-16T23:52:17.891Z,98606.13
2022-08-16T23:54:44.527Z,98607.00
2022-08-16T23:57:11.237Z,98608.00
2022-08-16T23:59:52.705Z,98605.03
